sensor_id;sensor_type;location;lat;lon;timestamp;P1;durP1;ratioP1;P2;durP2;ratioP2
59147;SDS011;44930;52.878;6.168;2023-05-14T00:02:20;16.17;;;12.48;;
59147;SDS011;44930;52.878;6.168;2023-05-14T00:04:46;17.00;;;13.13;;
59147;SDS011;44930;52.878;6.168;2023-05-14T00:07:11;16.80;;;12.82;;
59147;SDS011;44930;52.878;6.168;2023-05-14T00:09:37;18.45;;;13.25;;
59147;SDS011;44930;52.878;6.168;2023-05-14T00:12:03;21.23;;;13.07;;
59147;SDS011;44930;52.878;6.168;2023-05-14T00:14:28;19.33;;;12.90;;
59147;SDS011;44930;52.878;6.168;2023-05-14T00:16:54;19.20;;;12.13;;
59147;SDS011;44930;52.878;6.168;2023-05-14T00:19:20;16.75;;;12.45;;
59147;SDS011;44930;52.878;6.168;2023-05-14T00:21:46;19.35;;;12.57;;
59147;SDS011;44930;52.878;6.168;2023-05-14T00:24:12;22.55;;;13.15;;
59147;SDS011;44930;52.878;6.168;2023-05-14T00:26:37;18.30;;;12.90;;
59147;SDS011;44930;52.878;6.168;2023-05-14T00:29:03;19.00;;;13.35;;
59147;SDS011;44930;52.878;6.168;2023-05-14T00:31:28;19.08;;;12.98;;
59147;SDS011;44930;52.878;6.168;2023-05-14T00:33:54;16.10;;;12.02;;
59147;SDS011;44930;52.878;6.168;2023-05-14T00:36:20;19.88;;;12.82;;
59147;SDS011;44930;52.878;6.168;2023-05-14T00:38:45;17.98;;;12.18;;
59147;SDS011;44930;52.878;6.168;2023-05-14T00:41:11;15.60;;;12.35;;
59147;SDS011;44930;52.878;6.168;2023-05-14T00:43:36;21.17;;;12.85;;
59147;SDS011;44930;52.878;6.168;2023-05-14T00:46:02;18.05;;;11.73;;
59147;SDS011;44930;52.878;6.168;2023-05-14T00:48:28;16.33;;;11.77;;
59147;SDS011;44930;52.878;6.168;2023-05-14T00:50:54;21.48;;;11.38;;
59147;SDS011;44930;52.878;6.168;2023-05-14T00:53:19;17.80;;;10.82;;
59147;SDS011;44930;52.878;6.168;2023-05-14T00:55:45;17.73;;;11.38;;
59147;SDS011;44930;52.878;6.168;2023-05-14T00:58:13;21.10;;;11.98;;
59147;SDS011;44930;52.878;6.168;2023-05-14T01:00:39;17.13;;;10.23;;
59147;SDS011;44930;52.878;6.168;2023-05-14T01:03:06;16.00;;;10.15;;
59147;SDS011;44930;52.878;6.168;2023-05-14T01:08:41;14.55;;;10.65;;
59147;SDS011;44930;52.878;6.168;2023-05-14T01:16:39;17.50;;;10.45;;
59147;SDS011;44930;52.878;6.168;2023-05-14T01:19:06;13.98;;;10.95;;
59147;SDS011;44930;52.878;6.168;2023-05-14T01:21:41;14.43;;;10.20;;
59147;SDS011;44930;52.878;6.168;2023-05-14T01:24:07;15.82;;;10.90;;
59147;SDS011;44930;52.878;6.168;2023-05-14T01:26:34;17.30;;;10.35;;
59147;SDS011;44930;52.878;6.168;2023-05-14T01:29:11;16.90;;;10.80;;
59147;SDS011;44930;52.878;6.168;2023-05-14T01:31:43;16.55;;;11.10;;
59147;SDS011;44930;52.878;6.168;2023-05-14T01:34:10;15.52;;;11.23;;
59147;SDS011;44930;52.878;6.168;2023-05-14T01:36:37;14.90;;;11.00;;
59147;SDS011;44930;52.878;6.168;2023-05-14T01:39:04;16.98;;;10.18;;
59147;SDS011;44930;52.878;6.168;2023-05-14T01:41:33;13.82;;;10.23;;
59147;SDS011;44930;52.878;6.168;2023-05-14T01:44:00;13.60;;;9.95;;
59147;SDS011;44930;52.878;6.168;2023-05-14T01:46:29;13.85;;;10.40;;
59147;SDS011;44930;52.878;6.168;2023-05-14T01:48:55;14.68;;;10.32;;
59147;SDS011;44930;52.878;6.168;2023-05-14T01:51:21;13.18;;;9.70;;
59147;SDS011;44930;52.878;6.168;2023-05-14T01:53:47;14.75;;;10.38;;
59147;SDS011;44930;52.878;6.168;2023-05-14T01:56:12;16.67;;;10.43;;
59147;SDS011;44930;52.878;6.168;2023-05-14T01:58:38;15.90;;;10.05;;
59147;SDS011;44930;52.878;6.168;2023-05-14T02:01:03;15.60;;;10.38;;
59147;SDS011;44930;52.878;6.168;2023-05-14T02:03:29;19.45;;;11.18;;
59147;SDS011;44930;52.878;6.168;2023-05-14T02:05:55;15.98;;;10.50;;
59147;SDS011;44930;52.878;6.168;2023-05-14T02:08:20;15.10;;;9.50;;
59147;SDS011;44930;52.878;6.168;2023-05-14T02:10:46;22.98;;;10.07;;
59147;SDS011;44930;52.878;6.168;2023-05-14T02:13:11;15.30;;;10.23;;
59147;SDS011;44930;52.878;6.168;2023-05-14T02:15:37;15.07;;;9.80;;
59147;SDS011;44930;52.878;6.168;2023-05-14T02:18:02;18.63;;;11.02;;
59147;SDS011;44930;52.878;6.168;2023-05-14T02:20:28;19.65;;;11.35;;
59147;SDS011;44930;52.878;6.168;2023-05-14T02:22:54;15.82;;;11.32;;
59147;SDS011;44930;52.878;6.168;2023-05-14T02:25:19;15.55;;;10.65;;
59147;SDS011;44930;52.878;6.168;2023-05-14T02:27:45;21.38;;;11.02;;
59147;SDS011;44930;52.878;6.168;2023-05-14T02:30:10;16.42;;;11.05;;
59147;SDS011;44930;52.878;6.168;2023-05-14T02:32:36;16.23;;;10.23;;
59147;SDS011;44930;52.878;6.168;2023-05-14T02:35:02;16.42;;;9.88;;
59147;SDS011;44930;52.878;6.168;2023-05-14T02:37:28;18.83;;;11.15;;
59147;SDS011;44930;52.878;6.168;2023-05-14T02:39:53;21.23;;;11.65;;
59147;SDS011;44930;52.878;6.168;2023-05-14T02:42:19;14.77;;;11.27;;
59147;SDS011;44930;52.878;6.168;2023-05-14T02:44:45;13.90;;;10.73;;
59147;SDS011;44930;52.878;6.168;2023-05-14T02:47:10;16.60;;;11.18;;
59147;SDS011;44930;52.878;6.168;2023-05-14T02:49:36;16.58;;;11.70;;
59147;SDS011;44930;52.878;6.168;2023-05-14T02:52:01;18.75;;;12.18;;
59147;SDS011;44930;52.878;6.168;2023-05-14T02:54:27;21.35;;;10.18;;
59147;SDS011;44930;52.878;6.168;2023-05-14T02:56:53;19.85;;;11.90;;
59147;SDS011;44930;52.878;6.168;2023-05-14T02:59:18;19.77;;;10.93;;
59147;SDS011;44930;52.878;6.168;2023-05-14T03:01:44;20.80;;;12.68;;
59147;SDS011;44930;52.878;6.168;2023-05-14T03:04:09;15.35;;;11.05;;
59147;SDS011;44930;52.878;6.168;2023-05-14T03:06:35;18.40;;;11.20;;
59147;SDS011;44930;52.878;6.168;2023-05-14T03:09:00;18.35;;;11.70;;
59147;SDS011;44930;52.878;6.168;2023-05-14T03:11:26;18.58;;;11.27;;
59147;SDS011;44930;52.878;6.168;2023-05-14T03:13:52;15.77;;;12.00;;
59147;SDS011;44930;52.878;6.168;2023-05-14T03:16:17;16.98;;;11.00;;
59147;SDS011;44930;52.878;6.168;2023-05-14T03:18:43;24.27;;;11.73;;
59147;SDS011;44930;52.878;6.168;2023-05-14T03:21:08;15.10;;;12.13;;
59147;SDS011;44930;52.878;6.168;2023-05-14T03:23:34;18.55;;;11.90;;
59147;SDS011;44930;52.878;6.168;2023-05-14T03:26:00;16.33;;;11.25;;
59147;SDS011;44930;52.878;6.168;2023-05-14T03:28:26;16.00;;;11.35;;
59147;SDS011;44930;52.878;6.168;2023-05-14T03:30:51;18.42;;;11.25;;
59147;SDS011;44930;52.878;6.168;2023-05-14T03:33:17;17.80;;;11.88;;
59147;SDS011;44930;52.878;6.168;2023-05-14T03:35:42;22.10;;;12.25;;
59147;SDS011;44930;52.878;6.168;2023-05-14T03:38:08;16.48;;;11.52;;
59147;SDS011;44930;52.878;6.168;2023-05-14T03:40:34;15.80;;;12.07;;
59147;SDS011;44930;52.878;6.168;2023-05-14T03:42:59;18.90;;;11.55;;
59147;SDS011;44930;52.878;6.168;2023-05-14T03:45:25;17.48;;;12.23;;
59147;SDS011;44930;52.878;6.168;2023-05-14T03:47:52;19.80;;;11.73;;
59147;SDS011;44930;52.878;6.168;2023-05-14T03:50:18;20.30;;;11.90;;
59147;SDS011;44930;52.878;6.168;2023-05-14T03:52:43;20.35;;;11.63;;
59147;SDS011;44930;52.878;6.168;2023-05-14T03:55:09;16.83;;;12.23;;
59147;SDS011;44930;52.878;6.168;2023-05-14T03:57:35;19.92;;;11.70;;
59147;SDS011;44930;52.878;6.168;2023-05-14T04:00:01;21.02;;;12.02;;
59147;SDS011;44930;52.878;6.168;2023-05-14T04:02:27;20.67;;;11.18;;
59147;SDS011;44930;52.878;6.168;2023-05-14T04:04:53;18.30;;;11.90;;
59147;SDS011;44930;52.878;6.168;2023-05-14T04:07:18;15.30;;;11.23;;
59147;SDS011;44930;52.878;6.168;2023-05-14T04:09:44;17.30;;;11.05;;
59147;SDS011;44930;52.878;6.168;2023-05-14T04:12:10;20.90;;;11.02;;
59147;SDS011;44930;52.878;6.168;2023-05-14T04:14:35;16.02;;;11.95;;
59147;SDS011;44930;52.878;6.168;2023-05-14T04:17:01;19.58;;;11.63;;
59147;SDS011;44930;52.878;6.168;2023-05-14T04:19:26;21.92;;;12.45;;
59147;SDS011;44930;52.878;6.168;2023-05-14T04:21:52;16.88;;;11.23;;
59147;SDS011;44930;52.878;6.168;2023-05-14T04:24:18;18.90;;;11.85;;
59147;SDS011;44930;52.878;6.168;2023-05-14T04:26:43;18.63;;;12.18;;
59147;SDS011;44930;52.878;6.168;2023-05-14T04:29:09;17.13;;;11.43;;
59147;SDS011;44930;52.878;6.168;2023-05-14T04:31:34;17.92;;;11.80;;
59147;SDS011;44930;52.878;6.168;2023-05-14T04:34:00;25.90;;;12.40;;
59147;SDS011;44930;52.878;6.168;2023-05-14T04:36:25;19.17;;;13.18;;
59147;SDS011;44930;52.878;6.168;2023-05-14T04:38:51;20.80;;;13.57;;
59147;SDS011;44930;52.878;6.168;2023-05-14T04:41:16;17.35;;;12.82;;
59147;SDS011;44930;52.878;6.168;2023-05-14T04:43:42;22.10;;;14.02;;
59147;SDS011;44930;52.878;6.168;2023-05-14T04:46:08;21.17;;;12.60;;
59147;SDS011;44930;52.878;6.168;2023-05-14T04:48:33;21.95;;;14.05;;
59147;SDS011;44930;52.878;6.168;2023-05-14T04:50:59;22.10;;;14.20;;
59147;SDS011;44930;52.878;6.168;2023-05-14T04:53:25;22.23;;;14.07;;
59147;SDS011;44930;52.878;6.168;2023-05-14T04:55:50;19.80;;;13.60;;
59147;SDS011;44930;52.878;6.168;2023-05-14T04:58:16;18.58;;;13.50;;
59147;SDS011;44930;52.878;6.168;2023-05-14T05:00:41;21.30;;;13.48;;
59147;SDS011;44930;52.878;6.168;2023-05-14T05:03:07;23.15;;;13.02;;
59147;SDS011;44930;52.878;6.168;2023-05-14T05:05:33;22.33;;;13.50;;
59147;SDS011;44930;52.878;6.168;2023-05-14T05:07:59;23.02;;;12.70;;
59147;SDS011;44930;52.878;6.168;2023-05-14T05:10:25;23.70;;;13.05;;
59147;SDS011;44930;52.878;6.168;2023-05-14T05:12:50;23.95;;;12.60;;
59147;SDS011;44930;52.878;6.168;2023-05-14T05:15:16;17.50;;;11.10;;
59147;SDS011;44930;52.878;6.168;2023-05-14T05:17:41;19.80;;;11.98;;
59147;SDS011;44930;52.878;6.168;2023-05-14T05:20:07;22.88;;;12.10;;
59147;SDS011;44930;52.878;6.168;2023-05-14T05:22:34;21.75;;;11.57;;
59147;SDS011;44930;52.878;6.168;2023-05-14T05:25:00;21.73;;;11.43;;
59147;SDS011;44930;52.878;6.168;2023-05-14T05:27:30;24.25;;;12.40;;
59147;SDS011;44930;52.878;6.168;2023-05-14T05:29:56;17.70;;;11.35;;
59147;SDS011;44930;52.878;6.168;2023-05-14T05:32:21;26.52;;;12.73;;
59147;SDS011;44930;52.878;6.168;2023-05-14T05:34:47;21.08;;;11.65;;
59147;SDS011;44930;52.878;6.168;2023-05-14T05:37:13;23.02;;;11.80;;
59147;SDS011;44930;52.878;6.168;2023-05-14T05:39:39;19.25;;;12.10;;
59147;SDS011;44930;52.878;6.168;2023-05-14T05:42:04;19.58;;;10.73;;
59147;SDS011;44930;52.878;6.168;2023-05-14T05:44:30;25.90;;;12.52;;
59147;SDS011;44930;52.878;6.168;2023-05-14T05:46:56;24.05;;;11.70;;
59147;SDS011;44930;52.878;6.168;2023-05-14T05:49:21;22.02;;;11.82;;
59147;SDS011;44930;52.878;6.168;2023-05-14T05:51:47;22.27;;;12.48;;
59147;SDS011;44930;52.878;6.168;2023-05-14T05:54:13;29.05;;;12.98;;
59147;SDS011;44930;52.878;6.168;2023-05-14T05:56:38;23.40;;;12.35;;
59147;SDS011;44930;52.878;6.168;2023-05-14T05:59:04;24.75;;;12.90;;
59147;SDS011;44930;52.878;6.168;2023-05-14T06:01:29;19.98;;;12.18;;
59147;SDS011;44930;52.878;6.168;2023-05-14T06:03:55;27.63;;;12.77;;
59147;SDS011;44930;52.878;6.168;2023-05-14T06:06:21;21.83;;;12.02;;
59147;SDS011;44930;52.878;6.168;2023-05-14T06:08:46;32.28;;;14.00;;
59147;SDS011;44930;52.878;6.168;2023-05-14T06:11:12;29.42;;;14.85;;
59147;SDS011;44930;52.878;6.168;2023-05-14T06:13:38;30.70;;;13.15;;
59147;SDS011;44930;52.878;6.168;2023-05-14T06:16:03;26.63;;;14.15;;
59147;SDS011;44930;52.878;6.168;2023-05-14T06:18:29;27.98;;;14.30;;
59147;SDS011;44930;52.878;6.168;2023-05-14T06:20:54;30.88;;;13.98;;
59147;SDS011;44930;52.878;6.168;2023-05-14T06:23:21;21.55;;;13.93;;
59147;SDS011;44930;52.878;6.168;2023-05-14T06:25:48;23.92;;;14.93;;
59147;SDS011;44930;52.878;6.168;2023-05-14T06:28:14;30.38;;;14.95;;
59147;SDS011;44930;52.878;6.168;2023-05-14T06:30:39;26.25;;;14.25;;
59147;SDS011;44930;52.878;6.168;2023-05-14T06:33:05;25.38;;;14.20;;
59147;SDS011;44930;52.878;6.168;2023-05-14T06:35:31;33.83;;;15.27;;
59147;SDS011;44930;52.878;6.168;2023-05-14T06:37:58;29.73;;;14.60;;
59147;SDS011;44930;52.878;6.168;2023-05-14T06:40:24;25.63;;;14.43;;
59147;SDS011;44930;52.878;6.168;2023-05-14T06:42:49;28.30;;;14.40;;
59147;SDS011;44930;52.878;6.168;2023-05-14T06:45:15;25.00;;;14.63;;
59147;SDS011;44930;52.878;6.168;2023-05-14T06:47:41;31.08;;;14.23;;
59147;SDS011;44930;52.878;6.168;2023-05-14T06:50:06;23.85;;;13.70;;
59147;SDS011;44930;52.878;6.168;2023-05-14T06:52:32;23.45;;;14.98;;
59147;SDS011;44930;52.878;6.168;2023-05-14T06:54:58;33.83;;;13.90;;
59147;SDS011;44930;52.878;6.168;2023-05-14T06:57:23;26.80;;;13.90;;
59147;SDS011;44930;52.878;6.168;2023-05-14T06:59:49;23.73;;;12.65;;
59147;SDS011;44930;52.878;6.168;2023-05-14T07:02:14;29.95;;;14.27;;
59147;SDS011;44930;52.878;6.168;2023-05-14T07:04:40;26.55;;;13.52;;
59147;SDS011;44930;52.878;6.168;2023-05-14T07:07:05;19.75;;;12.10;;
59147;SDS011;44930;52.878;6.168;2023-05-14T07:09:31;23.95;;;12.48;;
59147;SDS011;44930;52.878;6.168;2023-05-14T07:11:57;23.15;;;11.73;;
59147;SDS011;44930;52.878;6.168;2023-05-14T07:14:22;22.30;;;11.85;;
59147;SDS011;44930;52.878;6.168;2023-05-14T07:16:48;21.23;;;11.98;;
59147;SDS011;44930;52.878;6.168;2023-05-14T07:19:14;18.70;;;11.98;;
59147;SDS011;44930;52.878;6.168;2023-05-14T07:21:40;19.08;;;11.07;;
59147;SDS011;44930;52.878;6.168;2023-05-14T07:24:06;19.05;;;11.95;;
59147;SDS011;44930;52.878;6.168;2023-05-14T07:26:31;20.77;;;10.95;;
59147;SDS011;44930;52.878;6.168;2023-05-14T07:28:57;18.92;;;10.52;;
59147;SDS011;44930;52.878;6.168;2023-05-14T07:31:22;27.10;;;11.98;;
59147;SDS011;44930;52.878;6.168;2023-05-14T07:33:48;18.88;;;10.93;;
59147;SDS011;44930;52.878;6.168;2023-05-14T07:36:13;22.45;;;12.20;;
59147;SDS011;44930;52.878;6.168;2023-05-14T07:38:39;20.60;;;10.80;;
59147;SDS011;44930;52.878;6.168;2023-05-14T07:41:05;18.77;;;10.75;;
59147;SDS011;44930;52.878;6.168;2023-05-14T07:43:30;19.20;;;11.10;;
59147;SDS011;44930;52.878;6.168;2023-05-14T07:45:56;21.73;;;10.98;;
59147;SDS011;44930;52.878;6.168;2023-05-14T07:48:21;16.98;;;11.07;;
59147;SDS011;44930;52.878;6.168;2023-05-14T07:50:47;19.00;;;10.68;;
59147;SDS011;44930;52.878;6.168;2023-05-14T07:53:13;25.55;;;11.30;;
59147;SDS011;44930;52.878;6.168;2023-05-14T07:55:39;16.42;;;10.20;;
59147;SDS011;44930;52.878;6.168;2023-05-14T07:58:05;19.17;;;10.00;;
59147;SDS011;44930;52.878;6.168;2023-05-14T08:00:31;19.55;;;9.95;;
59147;SDS011;44930;52.878;6.168;2023-05-14T08:02:56;16.60;;;9.95;;
59147;SDS011;44930;52.878;6.168;2023-05-14T08:05:22;17.20;;;10.55;;
59147;SDS011;44930;52.878;6.168;2023-05-14T08:07:47;16.75;;;9.80;;
59147;SDS011;44930;52.878;6.168;2023-05-14T08:10:13;18.63;;;10.68;;
59147;SDS011;44930;52.878;6.168;2023-05-14T08:12:38;22.30;;;10.82;;
59147;SDS011;44930;52.878;6.168;2023-05-14T08:15:05;14.30;;;10.13;;
59147;SDS011;44930;52.878;6.168;2023-05-14T08:17:31;17.58;;;10.32;;
59147;SDS011;44930;52.878;6.168;2023-05-14T08:19:57;16.83;;;9.70;;
59147;SDS011;44930;52.878;6.168;2023-05-14T08:22:23;21.85;;;9.98;;
59147;SDS011;44930;52.878;6.168;2023-05-14T08:24:48;15.68;;;10.10;;
59147;SDS011;44930;52.878;6.168;2023-05-14T08:27:14;17.17;;;10.57;;
59147;SDS011;44930;52.878;6.168;2023-05-14T08:29:40;19.27;;;9.75;;
59147;SDS011;44930;52.878;6.168;2023-05-14T08:32:06;17.65;;;10.65;;
59147;SDS011;44930;52.878;6.168;2023-05-14T08:34:32;17.02;;;10.10;;
59147;SDS011;44930;52.878;6.168;2023-05-14T08:36:58;16.80;;;8.85;;
59147;SDS011;44930;52.878;6.168;2023-05-14T08:39:23;15.60;;;9.60;;
59147;SDS011;44930;52.878;6.168;2023-05-14T08:41:49;18.05;;;9.73;;
59147;SDS011;44930;52.878;6.168;2023-05-14T08:44:19;16.83;;;9.57;;
59147;SDS011;44930;52.878;6.168;2023-05-14T08:46:47;15.90;;;8.35;;
59147;SDS011;44930;52.878;6.168;2023-05-14T08:49:24;12.93;;;9.07;;
59147;SDS011;44930;52.878;6.168;2023-05-14T08:52:11;16.70;;;8.40;;
59147;SDS011;44930;52.878;6.168;2023-05-14T08:54:37;16.42;;;9.00;;
59147;SDS011;44930;52.878;6.168;2023-05-14T08:57:03;13.93;;;8.95;;
59147;SDS011;44930;52.878;6.168;2023-05-14T08:59:29;20.95;;;9.10;;
59147;SDS011;44930;52.878;6.168;2023-05-14T09:01:55;15.45;;;10.10;;
59147;SDS011;44930;52.878;6.168;2023-05-14T09:04:24;15.43;;;8.98;;
59147;SDS011;44930;52.878;6.168;2023-05-14T09:06:51;17.42;;;9.27;;
59147;SDS011;44930;52.878;6.168;2023-05-14T09:09:18;12.15;;;8.20;;
59147;SDS011;44930;52.878;6.168;2023-05-14T09:11:50;16.23;;;8.52;;
59147;SDS011;44930;52.878;6.168;2023-05-14T09:14:17;14.80;;;8.68;;
59147;SDS011;44930;52.878;6.168;2023-05-14T09:16:44;11.27;;;8.18;;
59147;SDS011;44930;52.878;6.168;2023-05-14T09:19:11;19.52;;;9.77;;
59147;SDS011;44930;52.878;6.168;2023-05-14T09:21:37;12.50;;;8.20;;
59147;SDS011;44930;52.878;6.168;2023-05-14T09:24:04;15.85;;;9.30;;
59147;SDS011;44930;52.878;6.168;2023-05-14T09:26:31;19.73;;;9.63;;
59147;SDS011;44930;52.878;6.168;2023-05-14T09:28:58;13.82;;;8.55;;
59147;SDS011;44930;52.878;6.168;2023-05-14T09:31:31;18.88;;;8.02;;
59147;SDS011;44930;52.878;6.168;2023-05-14T09:33:57;17.15;;;8.50;;
59147;SDS011;44930;52.878;6.168;2023-05-14T09:36:23;16.60;;;9.25;;
59147;SDS011;44930;52.878;6.168;2023-05-14T09:38:51;11.43;;;7.15;;
59147;SDS011;44930;52.878;6.168;2023-05-14T09:41:17;13.75;;;7.97;;
59147;SDS011;44930;52.878;6.168;2023-05-14T09:43:43;15.82;;;8.98;;
59147;SDS011;44930;52.878;6.168;2023-05-14T09:46:08;14.88;;;8.48;;
59147;SDS011;44930;52.878;6.168;2023-05-14T09:48:35;15.73;;;8.65;;
59147;SDS011;44930;52.878;6.168;2023-05-14T09:51:01;16.05;;;8.63;;
59147;SDS011;44930;52.878;6.168;2023-05-14T09:53:27;19.15;;;9.15;;
59147;SDS011;44930;52.878;6.168;2023-05-14T09:55:53;16.08;;;8.73;;
59147;SDS011;44930;52.878;6.168;2023-05-14T09:58:19;16.75;;;8.82;;
59147;SDS011;44930;52.878;6.168;2023-05-14T10:00:45;18.75;;;8.90;;
59147;SDS011;44930;52.878;6.168;2023-05-14T10:03:12;21.67;;;9.52;;
59147;SDS011;44930;52.878;6.168;2023-05-14T10:05:39;15.52;;;8.80;;
59147;SDS011;44930;52.878;6.168;2023-05-14T10:08:26;15.32;;;9.10;;
59147;SDS011;44930;52.878;6.168;2023-05-14T10:10:54;14.70;;;8.48;;
59147;SDS011;44930;52.878;6.168;2023-05-14T10:13:24;17.75;;;8.43;;
59147;SDS011;44930;52.878;6.168;2023-05-14T10:16:00;14.60;;;8.45;;
59147;SDS011;44930;52.878;6.168;2023-05-14T10:18:38;12.63;;;9.15;;
59147;SDS011;44930;52.878;6.168;2023-05-14T10:21:05;13.98;;;9.30;;
59147;SDS011;44930;52.878;6.168;2023-05-14T10:23:35;18.60;;;8.65;;
59147;SDS011;44930;52.878;6.168;2023-05-14T10:26:02;13.43;;;8.38;;
59147;SDS011;44930;52.878;6.168;2023-05-14T10:28:28;13.70;;;7.60;;
59147;SDS011;44930;52.878;6.168;2023-05-14T10:30:55;14.55;;;7.38;;
59147;SDS011;44930;52.878;6.168;2023-05-14T10:33:20;15.57;;;8.90;;
59147;SDS011;44930;52.878;6.168;2023-05-14T10:38:15;12.00;;;8.02;;
59147;SDS011;44930;52.878;6.168;2023-05-14T10:40:40;14.90;;;8.30;;
59147;SDS011;44930;52.878;6.168;2023-05-14T10:43:06;15.60;;;8.85;;
59147;SDS011;44930;52.878;6.168;2023-05-14T10:45:32;14.45;;;7.80;;
59147;SDS011;44930;52.878;6.168;2023-05-14T10:47:58;11.95;;;7.75;;
59147;SDS011;44930;52.878;6.168;2023-05-14T10:50:24;11.38;;;7.43;;
59147;SDS011;44930;52.878;6.168;2023-05-14T10:52:50;12.45;;;7.22;;
59147;SDS011;44930;52.878;6.168;2023-05-14T10:55:16;8.98;;;7.05;;
59147;SDS011;44930;52.878;6.168;2023-05-14T10:57:43;12.05;;;7.28;;
59147;SDS011;44930;52.878;6.168;2023-05-14T11:00:10;16.25;;;8.10;;
59147;SDS011;44930;52.878;6.168;2023-05-14T11:02:38;13.65;;;7.72;;
59147;SDS011;44930;52.878;6.168;2023-05-14T11:05:05;10.80;;;7.13;;
59147;SDS011;44930;52.878;6.168;2023-05-14T11:07:43;13.02;;;7.97;;
59147;SDS011;44930;52.878;6.168;2023-05-14T11:10:10;15.77;;;8.20;;
59147;SDS011;44930;52.878;6.168;2023-05-14T11:12:41;11.95;;;7.05;;
59147;SDS011;44930;52.878;6.168;2023-05-14T11:15:15;15.40;;;7.88;;
59147;SDS011;44930;52.878;6.168;2023-05-14T11:17:42;10.77;;;7.35;;
59147;SDS011;44930;52.878;6.168;2023-05-14T11:20:09;13.80;;;7.00;;
59147;SDS011;44930;52.878;6.168;2023-05-14T11:22:36;11.95;;;7.43;;
59147;SDS011;44930;52.878;6.168;2023-05-14T11:25:03;13.18;;;7.10;;
59147;SDS011;44930;52.878;6.168;2023-05-14T11:27:29;11.32;;;6.88;;
59147;SDS011;44930;52.878;6.168;2023-05-14T11:29:56;14.45;;;7.28;;
59147;SDS011;44930;52.878;6.168;2023-05-14T11:32:22;12.35;;;6.78;;
59147;SDS011;44930;52.878;6.168;2023-05-14T11:34:48;14.10;;;7.15;;
59147;SDS011;44930;52.878;6.168;2023-05-14T11:37:14;11.35;;;6.25;;
59147;SDS011;44930;52.878;6.168;2023-05-14T11:39:47;15.00;;;7.68;;
59147;SDS011;44930;52.878;6.168;2023-05-14T11:42:17;9.55;;;6.40;;
59147;SDS011;44930;52.878;6.168;2023-05-14T11:44:47;12.15;;;7.68;;
59147;SDS011;44930;52.878;6.168;2023-05-14T11:47:14;11.10;;;5.85;;
59147;SDS011;44930;52.878;6.168;2023-05-14T11:49:40;7.88;;;5.78;;
59147;SDS011;44930;52.878;6.168;2023-05-14T11:52:07;8.70;;;5.57;;
59147;SDS011;44930;52.878;6.168;2023-05-14T11:54:38;12.85;;;5.72;;
59147;SDS011;44930;52.878;6.168;2023-05-14T11:57:08;10.43;;;5.90;;
59147;SDS011;44930;52.878;6.168;2023-05-14T11:59:38;12.35;;;5.90;;
59147;SDS011;44930;52.878;6.168;2023-05-14T12:02:04;7.25;;;6.05;;
59147;SDS011;44930;52.878;6.168;2023-05-14T12:04:35;12.40;;;5.78;;
59147;SDS011;44930;52.878;6.168;2023-05-14T12:07:06;11.55;;;6.47;;
59147;SDS011;44930;52.878;6.168;2023-05-14T12:09:37;11.75;;;5.88;;
59147;SDS011;44930;52.878;6.168;2023-05-14T12:12:08;10.40;;;5.93;;
59147;SDS011;44930;52.878;6.168;2023-05-14T12:14:36;11.98;;;5.18;;
59147;SDS011;44930;52.878;6.168;2023-05-14T12:17:02;9.75;;;5.15;;
59147;SDS011;44930;52.878;6.168;2023-05-14T12:19:33;11.02;;;6.18;;
59147;SDS011;44930;52.878;6.168;2023-05-14T12:22:05;9.35;;;4.82;;
59147;SDS011;44930;52.878;6.168;2023-05-14T12:24:31;8.65;;;5.63;;
59147;SDS011;44930;52.878;6.168;2023-05-14T12:26:59;11.52;;;6.07;;
59147;SDS011;44930;52.878;6.168;2023-05-14T12:29:26;16.75;;;7.30;;
59147;SDS011;44930;52.878;6.168;2023-05-14T12:31:51;9.52;;;5.35;;
59147;SDS011;44930;52.878;6.168;2023-05-14T12:34:17;9.38;;;4.80;;
59147;SDS011;44930;52.878;6.168;2023-05-14T12:36:42;9.20;;;5.22;;
59147;SDS011;44930;52.878;6.168;2023-05-14T12:39:08;8.10;;;3.75;;
59147;SDS011;44930;52.878;6.168;2023-05-14T12:41:34;8.07;;;4.22;;
59147;SDS011;44930;52.878;6.168;2023-05-14T12:44:01;10.95;;;4.40;;
59147;SDS011;44930;52.878;6.168;2023-05-14T12:46:28;10.88;;;4.28;;
59147;SDS011;44930;52.878;6.168;2023-05-14T12:48:53;6.65;;;3.83;;
59147;SDS011;44930;52.878;6.168;2023-05-14T12:51:20;7.80;;;3.97;;
59147;SDS011;44930;52.878;6.168;2023-05-14T12:53:45;10.02;;;5.15;;
59147;SDS011;44930;52.878;6.168;2023-05-14T12:56:11;15.07;;;5.78;;
59147;SDS011;44930;52.878;6.168;2023-05-14T12:58:37;8.82;;;4.72;;
59147;SDS011;44930;52.878;6.168;2023-05-14T13:01:03;9.20;;;4.18;;
59147;SDS011;44930;52.878;6.168;2023-05-14T13:03:29;8.73;;;4.22;;
59147;SDS011;44930;52.878;6.168;2023-05-14T13:05:55;7.10;;;3.95;;
59147;SDS011;44930;52.878;6.168;2023-05-14T13:08:21;9.77;;;4.28;;
59147;SDS011;44930;52.878;6.168;2023-05-14T13:10:50;9.00;;;4.75;;
59147;SDS011;44930;52.878;6.168;2023-05-14T13:13:16;9.20;;;4.38;;
59147;SDS011;44930;52.878;6.168;2023-05-14T13:15:41;14.55;;;5.03;;
59147;SDS011;44930;52.878;6.168;2023-05-14T13:18:07;7.70;;;3.70;;
59147;SDS011;44930;52.878;6.168;2023-05-14T13:20:33;7.40;;;3.67;;
59147;SDS011;44930;52.878;6.168;2023-05-14T13:22:59;7.20;;;3.50;;
59147;SDS011;44930;52.878;6.168;2023-05-14T13:25:24;5.45;;;3.22;;
59147;SDS011;44930;52.878;6.168;2023-05-14T13:27:50;6.10;;;3.47;;
59147;SDS011;44930;52.878;6.168;2023-05-14T13:30:19;6.18;;;3.33;;
59147;SDS011;44930;52.878;6.168;2023-05-14T13:32:44;8.00;;;3.30;;
59147;SDS011;44930;52.878;6.168;2023-05-14T13:35:10;5.20;;;3.10;;
59147;SDS011;44930;52.878;6.168;2023-05-14T13:37:36;6.40;;;3.78;;
59147;SDS011;44930;52.878;6.168;2023-05-14T13:40:02;7.10;;;3.95;;
59147;SDS011;44930;52.878;6.168;2023-05-14T13:42:30;5.15;;;3.10;;
59147;SDS011;44930;52.878;6.168;2023-05-14T13:44:57;7.05;;;3.25;;
59147;SDS011;44930;52.878;6.168;2023-05-14T13:47:23;6.43;;;3.50;;
59147;SDS011;44930;52.878;6.168;2023-05-14T13:49:49;8.00;;;3.67;;
59147;SDS011;44930;52.878;6.168;2023-05-14T13:52:16;10.05;;;3.47;;
59147;SDS011;44930;52.878;6.168;2023-05-14T13:54:41;10.27;;;3.85;;
59147;SDS011;44930;52.878;6.168;2023-05-14T13:57:07;6.32;;;3.30;;
59147;SDS011;44930;52.878;6.168;2023-05-14T13:59:32;9.05;;;2.83;;
59147;SDS011;44930;52.878;6.168;2023-05-14T14:01:59;5.72;;;2.97;;
59147;SDS011;44930;52.878;6.168;2023-05-14T14:04:25;6.85;;;4.47;;
59147;SDS011;44930;52.878;6.168;2023-05-14T14:06:53;10.65;;;3.67;;
59147;SDS011;44930;52.878;6.168;2023-05-14T14:09:19;4.55;;;2.95;;
59147;SDS011;44930;52.878;6.168;2023-05-14T14:11:44;6.72;;;3.13;;
59147;SDS011;44930;52.878;6.168;2023-05-14T14:14:10;8.68;;;2.90;;
59147;SDS011;44930;52.878;6.168;2023-05-14T14:16:36;5.95;;;3.35;;
59147;SDS011;44930;52.878;6.168;2023-05-14T14:19:02;5.80;;;3.00;;
59147;SDS011;44930;52.878;6.168;2023-05-14T14:21:27;5.13;;;2.88;;
59147;SDS011;44930;52.878;6.168;2023-05-14T14:23:53;5.20;;;2.75;;
59147;SDS011;44930;52.878;6.168;2023-05-14T14:26:18;7.22;;;3.38;;
59147;SDS011;44930;52.878;6.168;2023-05-14T14:28:45;5.38;;;2.65;;
59147;SDS011;44930;52.878;6.168;2023-05-14T14:31:12;8.65;;;2.72;;
59147;SDS011;44930;52.878;6.168;2023-05-14T14:33:37;4.75;;;2.85;;
59147;SDS011;44930;52.878;6.168;2023-05-14T14:36:03;7.35;;;3.20;;